Time;durP1;ratioP1;P1;durP2;ratioP2;P2;SDS_P1;SDS_P2;PMS_P1;PMS_P2;Temp;Humidity;BMP_temperature;BMP_pressure;BME280_temperature;BME280_humidity;BME280_pressure;Samples;Min_cycle;Max_cycle;Signal;HPM_P1;HPM_P2
2022/08/08 00:00:18;;;;;;;6.63;3.03;;;;;;;12.28;91.47;102390.06;2043806;28;35840;-71
2022/08/08 00:02:15;;;;;;;4.03;3.33;;;;;;;12.23;90.57;102390.97;2047732;28;20067;-72
2022/08/08 00:03:58;;;;;;;3.88;3.10;;;;;;;12.17;90.88;102388.34;2042320;28;25107;-71
2022/08/08 00:05:18;;;;;;;4.80;3.10;;;;;;;12.15;91.15;102383.84;2044247;28;31821;-71
2022/08/08 00:06:40;;;;;;;4.88;3.28;;;;;;;12.08;90.74;102388.41;2039776;28;30327;-71
2022/08/08 00:08:22;;;;;;;5.25;2.63;;;;;;;12.05;90.96;102388.41;2046925;28;40316;-72
2022/08/08 00:09:42;;;;;;;3.83;2.97;;;;;;;12.03;91.20;102388.41;2030765;29;27840;-71
2022/08/08 00:10:56;;;;;;;5.13;3.25;;;;;;;12.01;91.40;102381.28;2037351;28;24178;-71
2022/08/08 00:12:08;;;;;;;3.83;2.78;;;;;;;11.97;91.84;102385.78;2039581;29;25349;-71
2022/08/08 00:13:59;;;;;;;5.75;3.50;;;;;;;11.93;91.95;102385.78;2041119;28;28099;-71
2022/08/08 00:15:30;;;;;;;4.05;3.60;;;;;;;11.89;92.69;102381.31;2030944;29;32497;-71
2022/08/08 00:17:11;;;;;;;4.45;3.75;;;;;;;11.88;92.97;102382.19;2037435;29;20049;-71
2022/08/08 00:18:48;;;;;;;4.78;3.53;;;;;;;11.84;93.30;102378.63;2039680;28;34372;-71
2022/08/08 00:20:01;;;;;;;4.70;3.58;;;;;;;11.81;93.16;102384.91;2047227;28;29573;-71
2022/08/08 00:21:05;;;;;;;10.02;3.53;;;;;;;11.80;93.54;102382.25;2039792;28;26570;-71
2022/08/08 00:22:19;;;;;;;4.32;3.38;;;;;;;11.80;93.93;102376.88;2040873;28;25881;-71
2022/08/08 00:24:10;;;;;;;4.00;3.60;;;;;;;11.80;94.14;102383.13;2045252;28;31528;-71
2022/08/08 00:25:23;;;;;;;6.05;3.47;;;;;;;11.79;93.68;102369.72;2040629;28;20170;-72
2022/08/08 00:26:37;;;;;;;6.50;4.15;;;;;;;11.80;94.01;102383.13;2047061;28;28259;-71
2022/08/08 00:27:39;;;;;;;6.18;3.97;;;;;;;11.80;93.88;102375.06;2039508;29;20107;-72
2022/08/08 00:28:49;;;;;;;5.03;3.85;;;;;;;11.81;94.00;102384.91;2039894;28;30484;-72
2022/08/08 00:30:01;;;;;;;4.93;3.72;;;;;;;11.81;94.33;102379.56;2046309;28;27388;-72
2022/08/08 00:31:15;;;;;;;5.25;3.42;;;;;;;11.80;94.16;102383.13;2047027;28;23728;-72
2022/08/08 00:32:56;;;;;;;4.68;4.05;;;;;;;11.80;94.41;102379.56;2034339;29;20044;-72
2022/08/08 00:36:05;;;;;;;4.93;3.45;;;;;;;11.78;94.40;102378.69;2046978;28;31238;-72
2022/08/08 00:37:21;;;;;;;;;;;;;;;11.75;94.28;102382.25;2040103;29;23730;-72
2022/08/08 00:38:58;;;;;;;5.20;3.22;;;;;;;11.74;94.45;102383.16;2046034;28;20740;-72
2022/08/08 00:40:26;;;;;;;4.63;2.90;;;;;;;11.73;94.11;102378.69;2045550;28;22980;-72
2022/08/08 00:42:54;;;;;;;5.38;3.38;;;;;;;11.68;93.81;102375.13;2032790;28;20084;-72
2022/08/08 00:44:21;;;;;;;3.60;3.15;;;;;;;11.62;94.25;102372.47;2031477;29;20044;-72
2022/08/08 00:45:32;;;;;;;4.30;3.40;;;;;;;11.60;94.16;102379.66;2044663;28;20044;-72
2022/08/08 00:47:04;;;;;;;8.05;3.85;;;;;;;11.57;94.29;102369.81;2047071;28;20044;-72
2022/08/08 00:49:08;;;;;;;3.35;3.00;;;;;;;11.53;94.23;102376.09;2042404;28;21593;-72
2022/08/08 00:50:52;;;;;;;4.43;3.75;;;;;;;11.44;94.04;102370.75;2040144;29;20052;-72
2022/08/08 00:52:28;;;;;;;4.68;3.67;;;;;;;11.46;94.62;102374.31;2038865;29;20845;-72
2022/08/08 00:53:46;;;;;;;;;;;;;;;11.48;96.20;102369.84;2036620;29;28201;-72
2022/08/08 00:55:20;;;;;;;5.57;4.00;;;;;;;11.48;96.21;102367.16;2042259;28;19910;-72
2022/08/08 00:57:17;;;;;;;8.63;3.97;;;;;;;11.48;95.40;102371.66;2047181;28;20150;-72
2022/08/08 00:58:46;;;;;;;4.22;3.53;;;;;;;11.39;95.19;102367.19;2040104;28;20885;-72
2022/08/08 01:00:10;;;;;;;5.63;4.45;;;;;;;11.38;97.01;102368.13;2047319;28;20100;-72
2022/08/08 01:02:33;;;;;;;6.57;4.50;;;;;;;11.34;96.51;102369.91;2039458;29;20048;-72
2022/08/08 01:04:34;;;;;;;6.57;4.40;;;;;;;11.31;96.31;102363.66;2039481;29;20136;-72
2022/08/08 01:06:24;;;;;;;6.55;3.83;;;;;;;11.29;96.49;102366.34;2035400;29;20355;-72
2022/08/08 01:07:52;;;;;;;4.95;4.30;;;;;;;11.24;96.03;102365.47;2045749;28;20114;-71
2022/08/08 01:09:41;;;;;;;6.95;4.10;;;;;;;11.20;96.47;102371.75;2039261;29;20183;-72
2022/08/08 01:11:26;;;;;;;5.43;4.03;;;;;;;11.16;96.58;102368.19;2045611;28;20048;-72
2022/08/08 01:13:38;;;;;;;5.70;3.88;;;;;;;11.12;96.54;102365.50;2047224;28;20090;-72
2022/08/08 01:14:54;;;;;;;5.22;4.65;;;;;;;11.16;98.03;102364.59;2048066;28;20043;-72
2022/08/08 01:16:37;;;;;;;7.97;5.30;;;;;;;11.18;98.26;102370.81;2039223;28;20044;-72
2022/08/08 01:18:10;;;;;;;8.10;4.93;;;;;;;11.15;97.73;102371.75;2044389;28;20044;-73
2022/08/08 01:19:51;;;;;;;7.03;4.28;;;;;;;11.16;97.46;102367.25;2044148;28;20054;-72
2022/08/08 01:21:12;;;;;;;4.95;3.95;;;;;;;11.12;97.17;102368.19;2039046;29;20813;-72
2022/08/08 01:22:52;;;;;;;6.70;4.53;;;;;;;11.11;97.36;102371.72;2039750;28;20048;-72
2022/08/08 01:24:21;;;;;;;4.10;3.70;;;;;;;11.12;97.57;102365.50;2039277;29;20079;-72
2022/08/08 01:26:17;;;;;;;5.20;4.38;;;;;;;11.13;97.66;102375.34;2042241;28;20039;-72
2022/08/08 01:27:59;;;;;;;5.18;4.32;;;;;;;11.14;98.04;102369.94;2039387;29;20040;-72
2022/08/08 01:29:40;;;;;;;7.93;5.15;;;;;;;11.19;97.59;102369.94;2045122;28;20047;-73
2022/08/08 01:31:41;;;;;;;6.30;4.47;;;;;;;11.25;98.31;102372.59;2039291;29;20584;-73
2022/08/08 01:33:30;;;;;;;5.53;4.68;;;;;;;11.26;98.63;102367.22;2046877;28;20075;-72
2022/08/08 01:35:02;;;;;;;5.63;4.25;;;;;;;11.24;97.82;102377.06;2039042;29;20056;-72
2022/08/08 01:36:57;;;;;;;7.13;5.07;;;;;;;11.20;97.79;102369.94;2043725;28;20047;-72
2022/08/08 01:38:06;;;;;;;6.32;4.47;;;;;;;11.15;97.54;102371.75;2041368;28;20818;-72
2022/08/08 01:39:47;;;;;;;7.47;4.32;;;;;;;11.13;97.96;102369.97;2046899;28;20924;-72
2022/08/08 01:41:27;;;;;;;4.65;3.88;;;;;;;11.09;98.04;102371.78;2039038;28;20178;-72
2022/08/08 01:43:29;;;;;;;6.50;4.55;;;;;;;11.04;98.34;102369.09;2039346;28;20079;-72
2022/08/08 01:44:57;;;;;;;5.35;4.03;;;;;;;11.07;98.73;102381.56;2025329;29;21144;-72
2022/08/08 01:46:22;;;;;;;6.03;4.70;;;;;;;11.06;98.86;102372.66;2042410;28;20955;-72
2022/08/08 01:48:00;;;;;;;7.10;4.63;;;;;;;11.09;99.60;102371.78;2039030;29;20833;-72
2022/08/08 01:49:53;;;;;;;6.03;4.95;;;;;;;11.07;99.37;102373.53;2045750;28;20052;-72
2022/08/08 01:51:19;;;;;;;6.55;4.22;;;;;;;11.06;99.24;102371.75;2039143;29;20040;-72
2022/08/08 01:53:06;;;;;;;7.70;5.50;;;;;;;11.03;98.62;102367.28;2043121;28;20043;-72
2022/08/08 01:54:49;;;;;;;6.38;5.53;;;;;;;11.03;98.99;102374.44;2039104;29;20944;-72
2022/08/08 01:56:43;;;;;;;7.00;4.93;;;;;;;11.06;99.97;102378.00;2038709;29;20167;-72
2022/08/08 01:58:43;;;;;;;5.85;4.97;;;;;;;11.07;99.55;102378.88;2035321;29;20171;-72
2022/08/08 02:00:09;;;;;;;5.35;4.25;;;;;;;10.97;98.89;102380.72;2038773;29;20059;-72
2022/08/08 02:01:58;;;;;;;4.80;4.00;;;;;;;10.93;98.82;102383.38;2042214;28;20123;-72
2022/08/08 02:03:38;;;;;;;6.30;4.30;;;;;;;10.86;98.92;102371.81;2038958;29;20048;-72
2022/08/08 02:05:04;;;;;;;4.57;3.97;;;;;;;10.84;99.24;102374.47;2041716;28;20836;-72
2022/08/08 02:06:38;;;;;;;5.20;4.35;;;;;;;10.82;99.33;102372.69;2038941;29;21050;-72
2022/08/08 02:08:10;;;;;;;6.75;4.50;;;;;;;10.79;99.43;102378.94;2039285;28;20167;-72
2022/08/08 02:09:50;;;;;;;6.75;4.07;;;;;;;10.78;99.95;102370.91;2039540;29;20223;-72
2022/08/08 02:11:33;;;;;;;4.57;4.18;;;;;;;10.76;99.85;102378.06;2037178;29;21131;-72
2022/08/08 02:13:15;;;;;;;5.78;4.50;;;;;;;10.75;100.00;102376.25;2045197;28;20027;-72
2022/08/08 02:15:03;;;;;;;5.07;4.57;;;;;;;10.77;100.00;102379.84;2038882;29;20099;-72
2022/08/08 02:16:51;;;;;;;4.78;4.18;;;;;;;10.77;100.00;102374.50;2046865;28;20268;-72
2022/08/08 02:18:23;;;;;;;5.38;3.67;;;;;;;10.74;99.75;102372.69;2040240;28;20048;-72
2022/08/08 02:19:42;;;;;;;5.40;4.60;;;;;;;10.72;100.00;102374.47;2039055;29;20048;-72
2022/08/08 02:23:23;;;;;;;5.45;4.45;;;;;;;10.80;100.00;102379.81;2038512;28;20040;-72
2022/08/08 02:24:43;;;;;;;6.93;5.18;;;;;;;10.84;100.00;102384.31;2039315;29;20138;-72
2022/08/08 02:26:06;;;;;;;6.88;5.50;;;;;;;10.81;100.00;102386.97;2046839;28;20840;-72
2022/08/08 02:27:27;;;;;;;6.13;5.53;;;;;;;10.79;100.00;102386.09;2031489;29;20040;-72
2022/08/08 02:28:59;;;;;;;6.78;5.15;;;;;;;10.80;100.00;102386.09;2036978;29;20075;-72
2022/08/08 02:30:20;;;;;;;4.68;4.03;;;;;;;10.76;100.00;102388.78;2044487;28;20162;-72
2022/08/08 02:32:14;;;;;;;5.72;4.65;;;;;;;10.73;100.00;102389.69;2040274;29;21026;-72
2022/08/08 02:34:06;;;;;;;7.18;4.55;;;;;;;10.72;100.00;102387.00;2040241;29;20214;-72
2022/08/08 02:35:55;;;;;;;7.45;4.72;;;;;;;10.71;100.00;102386.06;2040212;29;20193;-72
2022/08/08 02:37:49;;;;;;;7.82;5.55;;;;;;;10.74;100.00;102385.19;2047439;28;20927;-72
2022/08/08 02:39:16;;;;;;;7.90;6.00;;;;;;;10.79;100.00;102388.78;2039692;29;20688;-72
2022/08/08 02:41:07;;;;;;;7.60;5.63;;;;;;;10.78;100.00;102386.97;2046104;28;20074;-73
2022/08/08 02:43:11;;;;;;;6.80;5.20;;;;;;;10.75;100.00;102378.94;2040076;29;20096;-72
2022/08/08 02:45:32;;;;;;;6.70;5.43;;;;;;;10.73;100.00;102378.97;2040831;28;20115;-72
2022/08/08 02:47:17;;;;;;;7.47;5.20;;;;;;;10.70;100.00;102387.00;2038722;29;20952;-72
2022/08/08 02:48:32;;;;;;;6.28;4.80;;;;;;;10.66;100.00;102379.84;2040528;29;20184;-73
2022/08/08 02:50:04;;;;;;;7.57;5.40;;;;;;;10.63;100.00;102386.09;2039898;29;20044;-73
2022/08/08 02:51:31;;;;;;;6.38;5.13;;;;;;;10.59;100.00;102387.00;2043906;28;20984;-73
2022/08/08 02:53:09;;;;;;;6.07;4.70;;;;;;;10.58;100.00;102390.53;2039966;28;20988;-73
2022/08/08 02:54:21;;;;;;;6.43;4.88;;;;;;;10.56;100.00;102391.44;2032626;29;20495;-73
2022/08/08 02:56:04;;;;;;;8.88;5.38;;;;;;;10.52;100.00;102390.56;2041184;28;20964;-73
2022/08/08 02:57:50;;;;;;;8.35;5.47;;;;;;;10.47;100.00;102395.00;2017858;29;20050;-72
2022/08/08 02:59:39;;;;;;;9.38;5.65;;;;;;;10.44;100.00;102397.69;2023200;29;20033;-73
2022/08/08 03:01:42;;;;;;;10.13;5.30;;;;;;;10.43;100.00;102393.22;2047843;28;20044;-73
2022/08/08 03:03:40;;;;;;;10.10;7.05;;;;;;;10.40;100.00;102395.91;2047905;28;20174;-73
2022/08/08 03:05:34;;;;;;;6.38;4.75;;;;;;;10.39;100.00;102397.69;2040089;29;20066;-73
2022/08/08 03:07:32;;;;;;;10.48;6.28;;;;;;;10.31;100.00;102400.34;2047859;28;20119;-74
2022/08/08 03:09:04;;;;;;;7.00;5.40;;;;;;;10.30;100.00;102389.59;2039700;29;20087;-73
2022/08/08 03:11:03;;;;;;;7.03;5.82;;;;;;;10.29;100.00;102398.53;2042972;28;20048;-73
2022/08/08 03:12:46;;;;;;;6.28;4.70;;;;;;;10.27;100.00;102403.88;2039697;29;20869;-73
2022/08/08 03:14:35;;;;;;;6.63;5.30;;;;;;;10.20;100.00;102394.03;2041165;28;20930;-73
2022/08/08 03:16:24;;;;;;;5.93;4.85;;;;;;;10.20;100.00;102399.38;2039547;29;20040;-74
2022/08/08 03:17:42;;;;;;;6.38;5.28;;;;;;;10.13;100.00;102402.94;2036653;29;20185;-73
2022/08/08 03:18:52;;;;;;;6.25;5.35;;;;;;;10.12;100.00;102398.47;2034265;29;20179;-73
2022/08/08 03:20:10;;;;;;;6.68;5.47;;;;;;;10.12;100.00;102395.78;2039727;28;20161;-74
2022/08/08 03:21:16;;;;;;;6.90;5.70;;;;;;;10.11;100.00;102402.06;2039896;29;20044;-74
2022/08/08 03:22:18;;;;;;;9.65;6.38;;;;;;;10.12;100.00;102399.38;2040051;28;20044;-73
2022/08/08 03:23:40;;;;;;;10.55;6.32;;;;;;;10.19;100.00;102400.28;2039572;29;20195;-73
2022/08/08 03:25:01;;;;;;;7.13;6.07;;;;;;;10.18;100.00;102394.94;2042018;28;20055;-73
2022/08/08 03:26:03;;;;;;;7.28;5.82;;;;;;;10.17;100.00;102396.69;2039790;29;20047;-73
2022/08/08 03:27:22;;;;;;;10.15;6.88;;;;;;;10.18;100.00;102400.28;2040008;29;20865;-74
2022/08/08 03:28:34;;;;;;;11.55;7.35;;;;;;;10.22;100.00;102400.28;2040213;29;20949;-74
2022/08/08 03:29:41;;;;;;;8.75;7.05;;;;;;;10.23;100.00;102410.13;2047898;28;20665;-74
2022/08/08 03:30:57;;;;;;;8.48;6.72;;;;;;;10.22;100.00;102394.03;2039880;29;20968;-73
2022/08/08 03:33:31;;;;;;;11.02;7.35;;;;;;;10.30;100.00;102401.22;2044203;28;20968;-74
2022/08/08 03:34:53;;;;;;;9.60;8.30;;;;;;;10.29;100.00;102409.22;2045628;28;20044;-74
2022/08/08 03:35:55;;;;;;;10.00;7.45;;;;;;;10.28;100.00;102408.34;2039779;29;20139;-74
2022/08/08 03:36:58;;;;;;;11.32;7.72;;;;;;;10.28;100.00;102400.31;2039646;29;20175;-73
2022/08/08 03:38:00;;;;;;;9.30;6.97;;;;;;;10.27;100.00;102405.66;2039757;29;20120;-74
2022/08/08 03:39:24;;;;;;;9.43;7.95;;;;;;;10.25;100.00;102407.44;2047078;28;20998;-74
2022/08/08 03:40:26;;;;;;;11.68;8.80;;;;;;;10.25;100.00;102405.66;2047173;28;23999;-73
2022/08/08 03:41:35;;;;;;;10.45;8.60;;;;;;;10.24;100.00;102405.66;2040336;29;20873;-74
2022/08/08 03:43:01;;;;;;;7.72;6.45;;;;;;;10.25;100.00;102412.81;2047775;28;20056;-74
2022/08/08 03:44:18;;;;;;;11.05;7.50;;;;;;;10.21;100.00;102406.53;2039962;28;20637;-73
2022/08/08 03:45:24;;;;;;;13.65;8.40;;;;;;;10.19;100.00;102407.41;2032767;28;21008;-74
2022/08/08 03:46:49;;;;;;;10.25;7.45;;;;;;;10.20;100.00;102412.78;2038952;29;20094;-74
2022/08/08 03:48:01;;;;;;;10.02;7.95;;;;;;;10.18;100.00;102411.88;2039255;29;20175;-74
2022/08/08 03:49:22;;;;;;;11.40;8.07;;;;;;;10.19;100.00;102408.28;2040882;28;20076;-74
2022/08/08 03:50:34;;;;;;;9.70;7.45;;;;;;;10.18;100.00;102406.53;2039496;29;20099;-74
2022/08/08 03:51:36;;;;;;;12.90;9.57;;;;;;;10.18;100.00;102411.00;2035060;29;21140;-74
2022/08/08 03:52:42;;;;;;;9.38;7.43;;;;;;;10.16;100.00;102408.31;2032742;29;20093;-74
2022/08/08 03:53:48;;;;;;;9.38;7.43;;;;;;;10.14;100.00;102410.09;2048292;28;20040;-74
2022/08/08 03:54:50;;;;;;;10.18;7.50;;;;;;;10.14;100.00;102407.41;2047810;28;20798;-74
2022/08/08 03:55:53;;;;;;;7.80;6.35;;;;;;;10.09;100.00;102402.03;2039585;29;20876;-74
2022/08/08 03:56:57;;;;;;;8.85;6.47;;;;;;;10.09;100.00;102407.41;2032327;29;20048;-74
2022/08/08 03:57:59;;;;;;;9.73;6.90;;;;;;;10.09;100.00;102411.88;2031783;29;20092;-74
2022/08/08 03:59:29;;;;;;;9.07;7.00;;;;;;;10.05;100.00;102404.69;2037813;28;20047;-74
2022/08/08 04:00:35;;;;;;;8.75;6.43;;;;;;;10.07;100.00;102416.31;2038770;29;20870;-74
2022/08/08 04:01:41;;;;;;;8.40;5.95;;;;;;;10.06;100.00;102411.84;2031614;29;20053;-74
2022/08/08 04:03:07;;;;;;;10.88;6.82;;;;;;;10.06;100.00;102419.88;2033982;29;20197;-74
2022/08/08 04:04:12;;;;;;;8.82;6.50;;;;;;;10.05;100.00;102421.66;2047139;28;20413;-74
2022/08/08 04:05:17;;;;;;;8.60;6.97;;;;;;;10.07;100.00;102421.69;2039142;29;20186;-74
2022/08/08 04:06:24;;;;;;;8.40;7.13;;;;;;;10.08;100.00;102423.44;2039513;28;20083;-74
2022/08/08 04:07:39;;;;;;;10.07;8.25;;;;;;;10.09;100.00;102418.09;2039004;29;20048;-74
2022/08/08 04:08:41;;;;;;;8.93;6.75;;;;;;;10.09;100.00;102420.78;2040514;28;20053;-74
2022/08/08 04:09:56;;;;;;;12.95;8.00;;;;;;;10.11;100.00;102419.00;2031565;29;20879;-74
2022/08/08 04:11:03;;;;;;;9.18;7.15;;;;;;;10.13;100.00;102413.66;2034463;28;20037;-74
2022/08/08 04:12:14;;;;;;;8.43;6.55;;;;;;;10.13;100.00;102419.00;2039513;28;20044;-74
2022/08/08 04:13:20;;;;;;;13.15;7.85;;;;;;;10.12;100.00;102418.13;2041288;28;20170;-74
2022/08/08 04:14:33;;;;;;;8.88;7.07;;;;;;;10.15;100.00;102410.97;2039054;28;20803;-74
2022/08/08 04:15:37;;;;;;;7.43;6.15;;;;;;;10.16;100.00;102421.69;2041429;28;20052;-74
2022/08/08 04:16:41;;;;;;;10.93;7.55;;;;;;;10.13;100.00;102417.22;2047212;28;20715;-74
2022/08/08 04:17:46;;;;;;;8.52;7.50;;;;;;;10.16;100.00;102424.38;2039502;28;20047;-74
2022/08/08 04:19:00;;;;;;;11.25;7.90;;;;;;;10.16;100.00;102421.69;2041538;28;20036;-74
2022/08/08 04:20:05;;;;;;;11.55;8.00;;;;;;;10.20;100.00;102423.47;2047502;28;21043;-74
2022/08/08 04:21:09;;;;;;;12.05;8.65;;;;;;;10.22;100.00;102428.84;2039304;28;20060;-74
2022/08/08 04:22:13;;;;;;;10.98;8.05;;;;;;;10.24;100.00;102427.94;2040256;28;20837;-74
2022/08/08 04:23:17;;;;;;;11.75;7.55;;;;;;;10.27;100.00;102435.09;2047488;28;20043;-74
2022/08/08 04:24:21;;;;;;;8.57;7.10;;;;;;;10.28;100.00;102427.09;2047407;28;20119;-75
2022/08/08 04:25:31;;;;;;;10.32;7.05;;;;;;;10.30;100.00;102433.34;2039426;28;20040;-74
2022/08/08 04:26:38;;;;;;;11.15;7.70;;;;;;;10.30;100.00;102430.66;2040684;28;20040;-74
2022/08/08 04:27:41;;;;;;;10.82;7.82;;;;;;;10.34;100.00;102423.56;2039225;29;20047;-74
2022/08/08 04:28:44;;;;;;;9.45;7.93;;;;;;;10.46;100.00;102428.94;2039989;28;20036;-75
2022/08/08 04:29:46;;;;;;;8.27;6.85;;;;;;;10.62;100.00;102423.56;2047051;28;20123;-73
2022/08/08 04:30:58;;;;;;;10.23;8.00;;;;;;;10.86;100.00;102420.91;2039182;28;20056;-73
2022/08/08 04:32:02;;;;;;;10.43;7.60;;;;;;;11.11;100.00;102426.25;2040529;28;20083;-73
2022/08/08 04:33:05;;;;;;;9.23;7.28;;;;;;;11.38;100.00;102428.00;2047247;28;20039;-73
2022/08/08 04:34:09;;;;;;;10.93;8.38;;;;;;;11.55;100.00;102425.25;2039330;28;20099;-74
2022/08/08 04:35:12;;;;;;;9.52;7.28;;;;;;;11.67;100.00;102429.69;2039750;28;20163;-74
2022/08/08 04:36:16;;;;;;;8.15;6.35;;;;;;;11.88;100.00;102423.38;2039518;29;20056;-74
2022/08/08 04:37:18;;;;;;;7.25;5.88;;;;;;;12.16;100.00;102418.75;2039587;28;20944;-74
2022/08/08 04:38:20;;;;;;;6.95;5.90;;;;;;;12.53;99.40;102420.34;2047359;28;20080;-74
2022/08/08 04:39:25;;;;;;;8.23;5.85;;;;;;;12.92;98.74;102411.06;2047291;28;20043;-74
2022/08/08 04:40:32;;;;;;;6.80;5.90;;;;;;;13.36;96.86;102412.41;2047536;28;20044;-73
2022/08/08 04:41:35;;;;;;;8.13;5.35;;;;;;;13.77;95.11;102407.47;2046996;28;20055;-73
2022/08/08 04:42:39;;;;;;;6.93;4.60;;;;;;;14.24;93.58;102410.44;2047340;28;20054;-74
2022/08/08 04:43:47;;;;;;;4.45;4.03;;;;;;;14.76;91.44;102406.94;2047299;28;20174;-74
2022/08/08 04:44:56;;;;;;;7.63;4.80;;;;;;;15.21;88.01;102398.94;2039329;28;20130;-74
2022/08/08 04:46:01;;;;;;;6.28;4.80;;;;;;;15.68;84.27;102403.44;2040241;28;20163;-74
2022/08/08 04:47:06;;;;;;;6.32;3.72;;;;;;;16.08;81.21;102403.50;2047214;28;20849;-74
2022/08/08 04:48:12;;;;;;;5.70;4.15;;;;;;;16.53;79.29;102397.06;2046990;28;20074;-74
2022/08/08 04:49:16;;;;;;;4.28;3.70;;;;;;;16.82;76.40;102401.72;2046824;28;20849;-74
2022/08/08 04:50:18;;;;;;;3.95;3.17;;;;;;;17.29;76.08;102396.88;2046969;28;20158;-74
2022/08/08 04:51:26;;;;;;;6.15;3.67;;;;;;;17.63;73.86;102392.34;2039192;28;20869;-73
2022/08/08 04:52:48;;;;;;;4.15;3.58;;;;;;;18.16;72.26;102394.38;2042025;28;20147;-73
2022/08/08 04:54:00;;;;;;;6.38;3.50;;;;;;;18.43;69.00;102398.94;2039324;28;20130;-73
2022/08/08 04:55:21;;;;;;;5.15;3.30;;;;;;;18.72;68.28;102399.78;2043915;28;20047;-73
2022/08/08 04:56:24;;;;;;;5.78;3.05;;;;;;;19.03;66.91;102396.91;2039182;29;20936;-73
2022/08/08 04:57:28;;;;;;;5.10;3.70;;;;;;;19.17;65.77;102390.13;2039138;29;21035;-73
2022/08/08 04:58:30;;;;;;;6.32;3.45;;;;;;;19.43;64.48;102392.78;2046923;28;20052;-73
2022/08/08 04:59:32;;;;;;;4.55;3.50;;;;;;;19.39;64.26;102395.66;2039177;28;21000;-73
2022/08/08 05:00:43;;;;;;;3.38;3.08;;;;;;;19.79;63.02;102395.09;2040162;28;20044;-73
2022/08/08 05:01:45;;;;;;;5.88;3.38;;;;;;;19.95;61.20;102394.47;2046983;28;20090;-73
2022/08/08 05:02:49;;;;;;;5.40;3.17;;;;;;;20.30;61.97;102397.63;2047081;28;20040;-73
2022/08/08 05:03:54;;;;;;;4.05;3.17;;;;;;;20.72;60.68;102389.53;2047051;28;20052;-73
2022/08/08 05:05:12;;;;;;;5.10;3.80;;;;;;;20.70;58.88;102390.56;2047146;28;20047;-73
2022/08/08 05:06:17;;;;;;;4.50;2.92;;;;;;;21.08;59.93;102390.75;2039147;29;20043;-73
2022/08/08 05:07:19;;;;;;;4.57;2.90;;;;;;;21.31;57.59;102401.50;2039360;28;20055;-73
2022/08/08 05:08:21;;;;;;;3.30;2.75;;;;;;;21.41;55.99;102390.16;2039149;29;20123;-73
2022/08/08 05:09:27;;;;;;;3.22;2.78;;;;;;;21.80;56.80;102390.19;2039879;28;20092;-73
2022/08/08 05:10:33;;;;;;;4.22;2.65;;;;;;;21.74;55.25;102394.09;2039192;28;20126;-73
2022/08/08 05:11:36;;;;;;;5.50;2.90;;;;;;;21.43;56.47;102388.28;2039652;28;20056;-73
2022/08/08 05:12:41;;;;;;;3.33;2.90;;;;;;;21.23;56.33;102392.78;2039659;28;20136;-73
2022/08/08 05:13:44;;;;;;;6.82;3.00;;;;;;;21.51;57.01;102397.00;2040119;28;20048;-73
2022/08/08 05:14:56;;;;;;;3.75;2.95;;;;;;;21.94;55.83;102395.00;2047054;28;20916;-73
2022/08/08 05:15:58;;;;;;;3.45;2.90;;;;;;;22.08;55.93;102399.81;2046920;28;24089;-73
2022/08/08 05:17:20;;;;;;;3.00;2.60;;;;;;;22.61;54.19;102395.41;2038803;29;20092;-73
2022/08/08 05:18:22;;;;;;;3.50;2.90;;;;;;;22.73;51.81;102396.63;2042074;28;20088;-73
2022/08/08 05:19:24;;;;;;;4.55;3.13;;;;;;;22.71;51.74;102396.72;2039395;28;20393;-74
2022/08/08 05:20:46;;;;;;;3.20;2.40;;;;;;;23.44;51.61;102399.31;2041878;28;20127;-73
2022/08/08 05:21:52;;;;;;;2.92;2.22;;;;;;;23.94;49.50;102390.19;2039236;29;21003;-74
2022/08/08 05:22:59;;;;;;;3.05;2.72;;;;;;;24.00;48.05;102388.97;2032444;29;21039;-74
2022/08/08 05:24:05;;;;;;;2.72;2.47;;;;;;;23.93;49.06;102393.03;2039442;28;20178;-73
2022/08/08 05:25:09;;;;;;;3.55;2.72;;;;;;;24.19;47.76;102394.25;2039116;28;21091;-74
2022/08/08 05:26:13;;;;;;;3.88;2.40;;;;;;;24.27;46.94;102385.63;2039746;28;20882;-74
2022/08/08 05:27:16;;;;;;;4.75;2.00;;;;;;;24.31;47.27;102387.19;2038504;29;20051;-74
2022/08/08 05:28:19;;;;;;;3.00;2.00;;;;;;;24.81;46.34;102388.84;2039339;28;20131;-74
2022/08/08 05:29:28;;;;;;;7.68;2.13;;;;;;;24.63;47.18;102388.06;2039322;29;20095;-74
2022/08/08 05:30:31;;;;;;;5.35;2.40;;;;;;;25.05;44.71;102388.31;2040326;28;20036;-74
2022/08/08 05:31:35;;;;;;;5.05;2.70;;;;;;;24.50;46.43;102395.22;2046519;28;20974;-74
2022/08/08 05:32:56;;;;;;;4.50;2.05;;;;;;;25.02;46.24;102394.88;2047025;28;20940;-74
2022/08/08 05:34:05;;;;;;;4.10;2.30;;;;;;;25.74;44.56;102389.50;2047077;28;20980;-74
2022/08/08 05:35:07;;;;;;;2.28;2.00;;;;;;;26.18;42.73;102393.97;2046052;28;20901;-74
2022/08/08 05:36:15;;;;;;;2.90;1.77;;;;;;;26.23;42.62;102383.56;2047118;28;20114;-74
2022/08/08 05:37:30;;;;;;;5.07;2.00;;;;;;;26.13;41.62;102393.44;2038625;29;20063;-74
2022/08/08 05:38:46;;;;;;;3.25;2.13;;;;;;;26.77;40.83;102396.47;2032547;29;20798;-74
2022/08/08 05:39:54;;;;;;;2.50;2.08;;;;;;;26.60;40.88;102391.22;2040032;28;20044;-74
2022/08/08 05:41:02;;;;;;;3.28;1.70;;;;;;;26.94;40.42;102400.81;2047066;28;20072;-74
2022/08/08 05:42:06;;;;;;;2.45;1.70;;;;;;;27.00;40.39;102394.00;2047185;28;20035;-74
2022/08/08 05:43:09;;;;;;;2.05;1.90;;;;;;;27.07;40.48;102394.47;2046724;28;20089;-74
2022/08/08 05:44:25;;;;;;;3.90;1.73;;;;;;;27.24;39.80;102407.88;2038617;28;20047;-74
2022/08/08 05:45:30;;;;;;;4.03;2.17;;;;;;;26.98;39.71;102401.47;2040285;28;20913;-74
2022/08/08 05:46:45;;;;;;;4.90;1.98;;;;;;;26.04;40.63;102405.88;2038932;29;20080;-74
2022/08/08 05:47:49;;;;;;;2.35;1.70;;;;;;;25.31;43.41;102411.41;2041326;28;20051;-74
2022/08/08 05:48:54;;;;;;;2.63;1.73;;;;;;;25.27;44.58;102418.09;2047041;28;20043;-74
2022/08/08 05:50:04;;;;;;;2.70;2.10;;;;;;;25.03;44.71;102421.28;2038737;29;20075;-74
2022/08/08 05:51:06;;;;;;;2.50;1.50;;;;;;;24.79;44.92;102420.06;2039710;28;20048;-73
2022/08/08 05:52:16;;;;;;;1.98;1.85;;;;;;;24.54;46.22;102419.63;2039069;29;20617;-74
2022/08/08 05:53:27;;;;;;;3.88;2.47;;;;;;;24.74;45.17;102415.69;2040482;28;20123;-74
2022/08/08 05:54:48;;;;;;;3.70;2.00;;;;;;;24.72;45.27;102419.53;2047069;28;20126;-74
2022/08/08 05:55:57;;;;;;;3.95;2.35;;;;;;;24.46;45.04;102424.66;2047005;28;20146;-74
2022/08/08 05:57:15;;;;;;;2.30;2.10;;;;;;;25.42;43.68;102425.34;2039127;29;20387;-75
2022/08/08 05:58:28;;;;;;;4.07;2.50;;;;;;;24.86;43.17;102424.19;2042155;28;20150;-74
2022/08/08 05:59:35;;;;;;;5.15;2.28;;;;;;;25.30;42.91;102417.88;2039285;29;20051;-75
2022/08/08 06:01:07;;;;;;;3.55;2.15;;;;;;;25.85;44.46;102427.22;2039407;29;20055;-74
2022/08/08 06:03:49;;;;;;;4.65;1.92;;;;;;;25.77;44.11;102429.56;2039210;29;20174;-74
2022/08/08 06:04:56;;;;;;;3.17;2.00;;;;;;;26.01;42.89;102427.16;2043138;28;20801;-74
2022/08/08 06:06:05;;;;;;;2.75;1.73;;;;;;;26.09;43.44;102424.78;2046870;28;20040;-74
2022/08/08 06:07:10;;;;;;;5.47;2.00;;;;;;;26.01;43.55;102435.41;2045430;28;20114;-74
2022/08/08 06:08:14;;;;;;;4.60;1.95;;;;;;;25.53;42.97;102433.78;2047125;28;20031;-74
2022/08/08 06:09:36;;;;;;;2.35;1.20;;;;;;;26.42;43.37;102423.56;2038958;29;20048;-75
2022/08/08 06:10:47;;;;;;;4.45;1.45;;;;;;;26.77;41.40;102425.81;2040326;28;20136;-75
2022/08/08 06:11:50;;;;;;;2.78;1.27;;;;;;;26.91;41.47;102425.75;2038556;29;22922;-75
2022/08/08 06:12:55;;;;;;;1.50;1.10;;;;;;;27.22;40.82;102429.13;2039106;28;20168;-75
2022/08/08 06:14:04;;;;;;;3.75;1.30;;;;;;;27.29;40.49;102427.72;2038165;29;20043;-74
2022/08/08 06:15:10;;;;;;;3.90;1.48;;;;;;;26.31;42.57;102428.88;2032444;29;20045;-75
2022/08/08 06:16:15;;;;;;;3.63;1.17;;;;;;;27.24;39.91;102429.88;2038538;28;20953;-75
2022/08/08 06:17:42;;;;;;;4.40;1.10;;;;;;;27.23;39.28;102425.38;2027462;29;20056;-74
2022/08/08 06:18:54;;;;;;;3.15;1.02;;;;;;;26.72;41.98;102430.75;2030688;29;20119;-74
2022/08/08 06:19:58;;;;;;;2.55;1.00;;;;;;;27.40;40.53;102425.13;2038909;29;20047;-75
2022/08/08 06:21:00;;;;;;;3.10;1.35;;;;;;;27.68;40.07;102427.75;2038939;29;20123;-75